createdAt,value
2018-05-06T00:04:08.317Z,39.27
2018-05-06T00:06:37.616Z,38.00
2018-05-06T00:09:05.917Z,37.53
2018-05-06T00:11:33.496Z,36.97
2018-05-06T00:14:01.597Z,38.30
2018-05-06T00:16:29.007Z,37.63
2018-05-06T00:18:59.347Z,38.77
2018-05-06T00:21:26.926Z,37.07
2018-05-06T00:23:54.447Z,35.27
2018-05-06T00:26:22.776Z,33.80
2018-05-06T00:28:50.226Z,31.83
2018-05-06T00:31:18.869Z,31.43
2018-05-06T00:33:46.872Z,31.60
2018-05-06T00:36:15.317Z,31.90
2018-05-06T00:38:44.449Z,30.90
2018-05-06T00:41:11.787Z,31.30
2018-05-06T00:43:39.297Z,30.60
2018-05-06T00:46:06.590Z,29.63
2018-05-06T00:48:48.947Z,28.90
2018-05-06T00:51:16.606Z,29.77
2018-05-06T00:53:44.266Z,29.83
2018-05-06T00:56:11.768Z,28.47
2018-05-06T00:58:40.076Z,27.67
2018-05-06T01:01:09.870Z,29.17
2018-05-06T01:03:37.286Z,25.67
2018-05-06T01:06:04.827Z,25.20
2018-05-06T01:08:32.647Z,24.63
2018-05-06T01:11:00.036Z,22.50
2018-05-06T01:13:27.277Z,23.53
2018-05-06T01:15:54.766Z,23.97
2018-05-06T01:18:29.397Z,24.80
2018-05-06T01:20:56.687Z,26.67
2018-05-06T01:23:24.207Z,27.50
2018-05-06T01:25:51.608Z,26.60
2018-05-06T01:28:20.856Z,26.67
2018-05-06T01:30:48.167Z,26.70
2018-05-06T01:33:15.596Z,27.77
2018-05-06T01:35:43.167Z,27.23
2018-05-06T01:38:10.608Z,27.43
2018-05-06T01:40:38.957Z,28.63
2018-05-06T01:43:07.846Z,26.80
2018-05-06T01:45:35.386Z,27.57
2018-05-06T01:48:02.797Z,29.20
2018-05-06T01:50:30.237Z,29.33
2018-05-06T01:52:57.687Z,26.60
2018-05-06T01:55:24.885Z,24.70
2018-05-06T01:57:52.526Z,22.97
2018-05-06T02:00:20.572Z,24.30
2018-05-06T02:02:48.058Z,20.43
2018-05-06T02:05:16.046Z,18.27
2018-05-06T02:07:45.607Z,18.23
2018-05-06T02:10:13.397Z,18.07
2018-05-06T02:12:40.917Z,17.43
2018-05-06T02:15:11.526Z,17.20
2018-05-06T02:17:39.697Z,18.73
2018-05-06T02:20:07.849Z,23.60
2018-05-06T02:22:36.106Z,22.80
2018-05-06T02:25:03.707Z,19.83
2018-05-06T02:27:32.997Z,19.60
2018-05-06T02:30:00.467Z,15.00
2018-05-06T02:32:28.376Z,17.87
2018-05-06T02:34:57.367Z,12.47
2018-05-06T02:37:24.907Z,12.30
2018-05-06T02:39:53.367Z,11.83
2018-05-06T02:42:23.017Z,16.43
2018-05-06T02:44:50.577Z,12.77
2018-05-06T02:47:17.997Z,10.40
2018-05-06T02:49:45.266Z,11.03
2018-05-06T02:52:12.597Z,12.33
2018-05-06T02:54:40.477Z,19.33
2018-05-06T02:57:07.832Z,18.97
2018-05-06T02:59:35.097Z,19.57
2018-05-06T03:02:02.687Z,11.67
2018-05-06T03:04:30.107Z,10.07
2018-05-06T03:06:58.377Z,9.20
2018-05-06T03:09:25.838Z,8.80
2018-05-06T03:11:53.719Z,8.57
2018-05-06T03:14:21.787Z,7.83
2018-05-06T03:16:50.239Z,7.87
2018-05-06T03:19:18.607Z,7.50
2018-05-06T03:21:46.098Z,7.70
2018-05-06T03:24:13.692Z,7.63
2018-05-06T03:26:40.927Z,7.37
2018-05-06T03:29:09.709Z,8.73
2018-05-06T03:31:38.028Z,7.63
2018-05-06T03:34:05.437Z,8.47
2018-05-06T03:36:33.467Z,8.50
2018-05-06T03:39:01.038Z,9.40
2018-05-06T03:41:28.567Z,7.80
2018-05-06T03:43:56.238Z,6.40
2018-05-06T03:46:23.477Z,6.10
2018-05-06T03:48:51.038Z,5.90
2018-05-06T03:51:18.617Z,5.77
2018-05-06T03:53:45.848Z,6.07
2018-05-06T03:59:56.818Z,8.03
2018-05-06T04:02:40.167Z,7.60
2018-05-06T04:05:07.526Z,7.77
2018-05-06T04:07:35.217Z,7.43
2018-05-06T04:10:02.761Z,8.97
2018-05-06T04:12:30.048Z,7.33
2018-05-06T04:14:57.436Z,4.47
2018-05-06T04:17:24.738Z,3.97
2018-05-06T04:19:53.056Z,3.77
2018-05-06T04:22:21.317Z,4.43
2018-05-06T04:24:49.716Z,4.60
2018-05-06T04:27:17.000Z,3.50
2018-05-06T04:29:44.508Z,3.50
2018-05-06T04:32:13.177Z,3.47
2018-05-06T04:34:40.447Z,3.60
2018-05-06T04:37:08.487Z,3.97
2018-05-06T04:39:36.777Z,3.37
2018-05-06T04:42:04.197Z,3.60
2018-05-06T04:44:33.657Z,3.00
2018-05-06T04:47:03.000Z,3.10
2018-05-06T04:49:30.739Z,2.80
2018-05-06T04:51:57.977Z,3.13
2018-05-06T04:54:25.447Z,2.60
2018-05-06T04:56:52.900Z,3.10
2018-05-06T04:59:21.918Z,3.10
2018-05-06T05:01:49.427Z,2.60
2018-05-06T05:04:16.718Z,2.90
2018-05-06T05:06:44.107Z,2.57
2018-05-06T05:09:11.526Z,2.60
2018-05-06T05:11:39.007Z,2.50
2018-05-06T05:14:06.327Z,2.47
2018-05-06T05:16:34.768Z,2.33
2018-05-06T05:19:02.068Z,2.67
2018-05-06T05:21:29.607Z,2.70
2018-05-06T05:23:57.847Z,2.70
2018-05-06T05:26:25.607Z,2.70
2018-05-06T05:28:52.938Z,3.10
2018-05-06T05:31:20.399Z,2.50
2018-05-06T05:33:48.058Z,2.77
2018-05-06T05:36:15.589Z,2.53
2018-05-06T05:38:44.417Z,2.60
2018-05-06T05:41:11.779Z,2.73
2018-05-06T05:43:39.367Z,2.50
2018-05-06T05:46:06.528Z,2.90
2018-05-06T05:48:34.707Z,2.37
2018-05-06T05:51:02.367Z,2.93
2018-05-06T05:53:30.677Z,2.93
2018-05-06T05:55:58.917Z,2.40
2018-05-06T05:58:27.490Z,2.53
2018-05-06T06:00:55.607Z,2.60
2018-05-06T06:03:22.957Z,2.50
2018-05-06T06:05:50.207Z,2.47
2018-05-06T06:08:17.918Z,2.60
2018-05-06T06:10:45.197Z,2.20
2018-05-06T06:13:14.227Z,2.50
2018-05-06T06:15:41.647Z,2.67
2018-05-06T06:18:09.927Z,2.60
2018-05-06T06:20:37.367Z,2.63
2018-05-06T06:23:06.428Z,2.90
2018-05-06T06:25:33.553Z,2.30
2018-05-06T06:28:01.018Z,2.43
2018-05-06T06:30:28.497Z,2.57
2018-05-06T06:32:55.645Z,2.50
2018-05-06T06:35:23.320Z,2.10
2018-05-06T06:37:50.789Z,2.20
2018-05-06T06:40:18.811Z,2.50
2018-05-06T06:42:46.270Z,2.20
2018-05-06T06:45:13.781Z,2.50
2018-05-06T06:47:41.989Z,2.00
2018-05-06T06:50:09.439Z,2.40
2018-05-06T06:52:36.862Z,2.70
2018-05-06T06:55:04.457Z,2.60
2018-05-06T06:57:32.129Z,4.43
2018-05-06T06:59:59.787Z,2.40
2018-05-06T07:02:27.307Z,4.60
2018-05-06T07:04:55.567Z,2.80
2018-05-06T07:07:23.017Z,2.40
2018-05-06T07:09:51.027Z,2.57
2018-05-06T07:12:18.684Z,2.60
2018-05-06T07:14:46.524Z,2.87
2018-05-06T07:17:14.730Z,3.00
2018-05-06T07:19:41.878Z,2.20
2018-05-06T07:22:09.351Z,6.67
2018-05-06T07:24:36.433Z,8.70
2018-05-06T07:27:03.553Z,2.40
2018-05-06T07:29:31.147Z,3.20
2018-05-06T07:31:58.969Z,2.70
2018-05-06T07:34:26.437Z,3.40
2018-05-06T07:36:53.677Z,2.03
2018-05-06T07:39:21.469Z,2.40
2018-05-06T07:41:48.927Z,2.40
2018-05-06T07:44:16.229Z,2.87
2018-05-06T07:46:43.777Z,2.70
2018-05-06T07:49:12.107Z,2.10
2018-05-06T07:51:39.627Z,2.10
2018-05-06T07:54:07.367Z,2.40
2018-05-06T07:56:34.907Z,2.43
2018-05-06T07:59:02.477Z,5.07
2018-05-06T08:01:30.077Z,3.93
2018-05-06T08:03:57.518Z,2.10
2018-05-06T08:06:25.738Z,2.43
2018-05-06T08:08:53.367Z,3.10
2018-05-06T08:11:20.828Z,3.10
2018-05-06T08:13:48.617Z,2.63
2018-05-06T08:16:16.180Z,3.00
2018-05-06T08:18:43.729Z,2.60
2018-05-06T08:21:11.358Z,2.70
2018-05-06T08:23:38.815Z,3.80
2018-05-06T08:26:06.552Z,3.50
2018-05-06T08:28:33.728Z,2.70
2018-05-06T08:31:01.348Z,3.07
2018-05-06T08:33:28.535Z,2.40
2018-05-06T08:35:56.107Z,2.90
2018-05-06T08:38:23.507Z,2.30
2018-05-06T08:40:51.438Z,2.83
2018-05-06T08:43:18.858Z,2.43
2018-05-06T08:45:46.293Z,2.50
2018-05-06T08:48:13.828Z,2.53
2018-05-06T08:50:41.718Z,2.60
2018-05-06T08:53:09.488Z,2.70
2018-05-06T08:55:36.788Z,2.37
2018-05-06T08:58:04.618Z,2.10
2018-05-06T09:00:31.978Z,2.67
2018-05-06T09:03:01.548Z,2.80
2018-05-06T09:05:29.667Z,2.43
2018-05-06T09:07:57.489Z,3.00
2018-05-06T09:10:24.977Z,2.20
2018-05-06T09:12:52.207Z,2.43
2018-05-06T09:15:20.038Z,2.47
2018-05-06T09:17:48.029Z,2.60
2018-05-06T09:20:15.467Z,2.13
2018-05-06T09:22:42.947Z,2.13
2018-05-06T09:25:10.148Z,2.47
2018-05-06T09:27:37.945Z,2.40
2018-05-06T09:30:05.757Z,2.20
2018-05-06T09:32:34.748Z,2.20
2018-05-06T09:35:02.608Z,2.50
2018-05-06T09:37:30.167Z,2.13
2018-05-06T09:39:58.807Z,2.30
2018-05-06T09:42:26.288Z,2.40
2018-05-06T09:44:53.748Z,2.43
2018-05-06T09:47:21.238Z,2.10
2018-05-06T09:49:49.479Z,2.20
2018-05-06T09:52:17.318Z,2.00
2018-05-06T09:54:44.828Z,2.40
2018-05-06T09:57:13.648Z,2.20
2018-05-06T09:59:41.417Z,6.70
2018-05-06T10:02:08.907Z,2.00
2018-05-06T10:04:36.898Z,2.93
2018-05-06T10:07:04.479Z,2.20
2018-05-06T10:09:32.118Z,2.90
2018-05-06T10:11:59.977Z,2.87
2018-05-06T10:14:27.443Z,2.40
2018-05-06T10:16:54.987Z,2.40
2018-05-06T10:19:23.172Z,2.03
2018-05-06T10:21:52.789Z,2.33
2018-05-06T10:24:21.517Z,2.37
2018-05-06T10:26:49.019Z,2.90
2018-05-06T10:29:16.488Z,2.20
2018-05-06T10:31:43.887Z,2.13
2018-05-06T10:34:11.687Z,2.00
2018-05-06T10:36:39.457Z,2.30
2018-05-06T10:39:08.628Z,2.10
2018-05-06T10:41:37.067Z,2.10
2018-05-06T10:44:05.573Z,2.37
2018-05-06T10:46:34.395Z,2.10
2018-05-06T10:49:04.092Z,2.10
2018-05-06T10:51:33.618Z,2.20
2018-05-06T10:54:01.419Z,2.60
2018-05-06T10:56:28.947Z,1.87
2018-05-06T10:58:56.317Z,2.20
2018-05-06T11:01:24.350Z,1.93
2018-05-06T11:03:53.110Z,1.90
2018-05-06T11:06:21.438Z,2.00
2018-05-06T11:08:52.287Z,2.20
2018-05-06T11:11:20.908Z,2.00
2018-05-06T11:13:48.587Z,2.10
2018-05-06T11:16:15.987Z,2.33
2018-05-06T11:18:43.691Z,2.20
2018-05-06T11:21:11.318Z,2.13
2018-05-06T11:23:39.547Z,2.20
2018-05-06T11:26:07.487Z,2.00
2018-05-06T11:28:36.047Z,2.13
2018-05-06T11:31:03.588Z,2.10
2018-05-06T11:33:32.237Z,2.00
2018-05-06T11:35:59.537Z,2.00
2018-05-06T11:38:26.987Z,1.90
2018-05-06T11:40:54.453Z,2.30
2018-05-06T11:43:22.206Z,2.10
2018-05-06T11:45:50.319Z,2.20
2018-05-06T11:48:17.817Z,2.10
2018-05-06T11:50:45.127Z,2.10
2018-05-06T11:53:12.857Z,1.70
2018-05-06T11:55:41.929Z,1.77
2018-05-06T11:58:10.007Z,2.00
2018-05-06T12:00:38.426Z,2.17
2018-05-06T12:03:06.146Z,2.27
2018-05-06T12:05:33.578Z,2.17
2018-05-06T12:08:01.910Z,2.40
2018-05-06T12:10:29.457Z,2.10
2018-05-06T12:12:56.878Z,2.63
2018-05-06T12:15:25.447Z,3.40
2018-05-06T12:17:53.161Z,2.80
2018-05-06T12:20:20.397Z,3.50
2018-05-06T12:22:49.947Z,3.23
2018-05-06T12:25:17.617Z,2.90
2018-05-06T12:27:46.746Z,2.77
2018-05-06T12:30:14.367Z,2.43
2018-05-06T12:32:41.917Z,3.80
2018-05-06T12:35:11.237Z,3.13
2018-05-06T12:37:38.519Z,3.30
2018-05-06T12:40:06.942Z,2.90
2018-05-06T12:42:34.672Z,3.40
2018-05-06T12:45:03.339Z,2.63
2018-05-06T12:47:31.648Z,2.90
2018-05-06T12:49:59.873Z,5.30
2018-05-06T12:52:27.781Z,7.23
2018-05-06T12:54:55.847Z,10.23
2018-05-06T12:57:24.184Z,2.40
2018-05-06T12:59:51.597Z,2.53
2018-05-06T13:02:19.951Z,2.40
2018-05-06T13:04:47.636Z,2.43
2018-05-06T13:07:15.919Z,2.23
2018-05-06T13:09:43.406Z,2.93
2018-05-06T13:12:11.236Z,2.77
2018-05-06T13:14:39.915Z,2.33
2018-05-06T13:17:08.256Z,2.20
2018-05-06T13:19:35.887Z,2.67
2018-05-06T13:22:03.397Z,5.73
2018-05-06T13:24:31.705Z,6.40
2018-05-06T13:26:59.277Z,9.43
2018-05-06T13:29:26.937Z,2.07
2018-05-06T13:31:54.612Z,2.30
2018-05-06T13:34:22.338Z,2.20
2018-05-06T13:36:50.506Z,7.20
2018-05-06T13:39:18.747Z,3.20
2018-05-06T13:41:46.238Z,2.27
2018-05-06T13:44:14.688Z,2.23
2018-05-06T13:46:42.127Z,2.47
2018-05-06T13:49:09.978Z,1.90
2018-05-06T13:51:37.477Z,2.07
2018-05-06T13:54:05.088Z,2.37
2018-05-06T13:56:32.528Z,2.10
2018-05-06T13:59:02.710Z,2.23
2018-05-06T14:01:30.123Z,2.10
2018-05-06T14:03:57.497Z,1.93
2018-05-06T14:06:24.897Z,2.03
2018-05-06T14:08:53.329Z,2.20
2018-05-06T14:11:21.057Z,2.23
2018-05-06T14:13:48.478Z,1.90
2018-05-06T14:16:16.708Z,5.03
2018-05-06T14:18:44.154Z,2.10
2018-05-06T14:21:11.739Z,2.20
2018-05-06T14:23:39.317Z,1.73
2018-05-06T14:26:06.907Z,1.90
2018-05-06T14:28:34.677Z,2.30
2018-05-06T14:31:02.877Z,7.93
2018-05-06T14:33:30.377Z,4.03
2018-05-06T14:35:57.869Z,7.40
2018-05-06T14:38:25.437Z,11.60
2018-05-06T14:40:52.907Z,1.90
2018-05-06T14:43:20.463Z,3.20
2018-05-06T14:45:47.952Z,1.97
2018-05-06T14:48:15.626Z,3.80
2018-05-06T14:50:43.267Z,11.00
2018-05-06T14:53:10.678Z,14.07
2018-05-06T14:55:38.351Z,27.97
2018-05-06T14:58:05.817Z,9.20
2018-05-06T15:00:33.727Z,10.27
2018-05-06T15:03:01.248Z,12.13
2018-05-06T15:05:28.877Z,1.87
2018-05-06T15:07:56.267Z,6.67
2018-05-06T15:10:23.870Z,12.27
2018-05-06T15:12:51.718Z,8.53
2018-05-06T15:15:19.597Z,10.27
2018-05-06T15:17:47.227Z,6.90
2018-05-06T15:20:14.887Z,3.00
2018-05-06T15:22:42.307Z,1.57
2018-05-06T15:25:09.860Z,1.73
2018-05-06T15:27:38.077Z,4.90
2018-05-06T15:30:05.937Z,7.43
2018-05-06T15:32:33.388Z,9.20
2018-05-06T15:35:00.816Z,7.80
2018-05-06T15:37:29.137Z,7.87
2018-05-06T15:39:56.537Z,8.57
2018-05-06T15:42:24.360Z,5.57
2018-05-06T15:44:51.898Z,4.60
2018-05-06T15:47:19.336Z,8.10
2018-05-06T15:49:46.840Z,3.27
2018-05-06T15:52:14.326Z,3.23
2018-05-06T15:54:42.717Z,5.30
2018-05-06T15:57:11.173Z,4.20
2018-05-06T15:59:38.607Z,5.13
2018-05-06T16:02:19.007Z,1.87
2018-05-06T16:04:47.307Z,4.00
2018-05-06T16:07:15.618Z,2.73
2018-05-06T16:09:42.827Z,12.13
2018-05-06T16:12:10.317Z,7.97
2018-05-06T16:14:37.767Z,8.23
2018-05-06T16:17:04.844Z,7.67
2018-05-06T16:19:32.415Z,2.10
2018-05-06T16:21:59.887Z,1.77
2018-05-06T16:24:28.337Z,1.80
2018-05-06T16:26:55.874Z,2.00
2018-05-06T16:29:23.427Z,4.30
2018-05-06T16:31:50.999Z,3.60
2018-05-06T16:34:18.152Z,2.30
2018-05-06T16:36:45.899Z,3.67
2018-05-06T16:39:13.537Z,2.07
2018-05-06T16:41:41.098Z,4.57
2018-05-06T16:44:08.719Z,4.87
2018-05-06T16:46:36.417Z,4.10
2018-05-06T16:49:04.130Z,6.03
2018-05-06T16:51:31.818Z,3.33
2018-05-06T16:53:59.387Z,3.43
2018-05-06T16:56:27.748Z,2.80
2018-05-06T16:58:55.268Z,3.57
2018-05-06T17:01:23.023Z,2.40
2018-05-06T17:03:50.779Z,2.00
2018-05-06T17:06:18.707Z,2.83
2018-05-06T17:08:47.207Z,2.63
2018-05-06T17:11:15.789Z,3.33
2018-05-06T17:13:44.048Z,2.00
2018-05-06T17:16:15.257Z,2.37
2018-05-06T17:18:43.735Z,1.80
2018-05-06T17:23:52.370Z,2.23
2018-05-06T17:26:21.067Z,2.07
2018-05-06T17:28:48.645Z,2.10
2018-05-06T17:31:17.076Z,2.00
2018-05-06T17:33:44.506Z,2.40
2018-05-06T17:36:13.326Z,1.63
2018-05-06T17:38:40.935Z,2.30
2018-05-06T17:41:08.726Z,2.30
2018-05-06T17:43:36.126Z,1.87
2018-05-06T17:46:03.816Z,6.17
2018-05-06T17:48:31.477Z,2.27
2018-05-06T17:50:59.046Z,1.97
2018-05-06T17:53:27.386Z,6.60
2018-05-06T17:55:55.127Z,2.03
2018-05-06T17:58:22.676Z,5.27
2018-05-06T18:00:50.295Z,12.03
2018-05-06T18:03:18.278Z,1.90
2018-05-06T18:05:46.525Z,2.00
2018-05-06T18:08:14.185Z,2.00
2018-05-06T18:10:41.655Z,2.20
2018-05-06T18:13:09.226Z,3.30
2018-05-06T18:15:37.665Z,2.20
2018-05-06T18:18:05.265Z,2.40
2018-05-06T18:20:33.736Z,2.70
2018-05-06T18:23:03.365Z,3.00
2018-05-06T18:25:32.316Z,2.87
2018-05-06T18:28:00.505Z,8.37
2018-05-06T18:30:30.347Z,2.50
2018-05-06T18:32:57.915Z,2.70
2018-05-06T18:35:25.625Z,2.33
2018-05-06T18:40:28.176Z,2.60
2018-05-06T18:42:55.889Z,2.30
2018-05-06T18:45:24.065Z,2.30
2018-05-06T18:47:51.825Z,2.40
2018-05-06T18:50:23.346Z,1.90
2018-05-06T18:52:51.286Z,2.20
2018-05-06T18:55:18.895Z,2.00
2018-05-06T18:57:47.976Z,2.00
2018-05-06T19:00:16.086Z,1.70
2018-05-06T19:02:44.172Z,1.90
2018-05-06T19:05:12.166Z,1.80
2018-05-06T19:07:39.566Z,1.70
2018-05-06T19:10:09.325Z,2.13
2018-05-06T19:12:39.425Z,1.87
2018-05-06T19:15:09.636Z,1.67
2018-05-06T19:17:38.937Z,1.70
2018-05-06T19:20:09.806Z,1.60
2018-05-06T19:22:38.717Z,1.80
2018-05-06T19:25:10.536Z,1.90
2018-05-06T19:27:37.876Z,1.90
2018-05-06T19:30:06.008Z,2.00
2018-05-06T19:32:33.607Z,1.80
2018-05-06T19:35:06.890Z,1.80
2018-05-06T19:37:37.965Z,1.80
2018-05-06T19:42:51.016Z,1.50
2018-05-06T19:45:20.627Z,1.63
2018-05-06T19:47:48.616Z,1.80
2018-05-06T19:50:16.116Z,1.73
2018-05-06T19:52:48.895Z,1.90
2018-05-06T19:55:19.120Z,1.97
2018-05-06T19:57:48.176Z,1.70
2018-05-06T20:00:15.526Z,2.03
2018-05-06T20:02:44.149Z,1.60
2018-05-06T20:05:12.696Z,1.53
2018-05-06T20:07:42.185Z,1.80
2018-05-06T20:10:13.066Z,2.10
2018-05-06T20:12:40.440Z,1.50
2018-05-06T20:15:13.116Z,1.53
2018-05-06T20:17:41.389Z,1.70
2018-05-06T20:20:09.636Z,1.80
2018-05-06T20:22:38.088Z,1.70
2018-05-06T20:25:07.088Z,1.70
2018-05-06T20:27:34.598Z,1.73
2018-05-06T20:30:02.286Z,1.80
2018-05-06T20:32:31.286Z,1.70
2018-05-06T20:34:58.755Z,1.70
2018-05-06T20:37:29.645Z,1.90
2018-05-06T20:39:57.405Z,1.93
2018-05-06T20:42:27.185Z,1.67
2018-05-06T20:44:57.226Z,1.70
2018-05-06T20:47:27.815Z,1.73
2018-05-06T20:49:56.817Z,2.00
2018-05-06T20:52:24.685Z,1.63
2018-05-06T20:54:52.976Z,1.70
2018-05-06T20:57:23.515Z,1.80
2018-05-06T20:59:52.595Z,1.77
2018-05-06T21:02:22.596Z,2.03
2018-05-06T21:04:50.365Z,1.77
2018-05-06T21:07:19.245Z,2.00
2018-05-06T21:09:47.946Z,1.80
2018-05-06T21:12:15.676Z,1.73
2018-05-06T21:14:43.218Z,2.03
2018-05-06T21:17:11.025Z,2.13
2018-05-06T21:19:39.795Z,1.80
2018-05-06T21:22:09.216Z,1.77
2018-05-06T21:24:40.185Z,1.93
2018-05-06T21:27:09.806Z,2.13
2018-05-06T21:29:37.380Z,2.00
2018-05-06T21:32:05.570Z,2.10
2018-05-06T21:34:35.296Z,1.90
2018-05-06T21:37:03.320Z,1.77
2018-05-06T21:39:33.646Z,2.10
2018-05-06T21:42:01.927Z,1.80
2018-05-06T21:44:29.486Z,1.93
2018-05-06T21:46:57.635Z,2.13
2018-05-06T21:49:25.398Z,2.10
2018-05-06T21:51:54.047Z,2.17
2018-05-06T21:54:22.618Z,2.00
2018-05-06T21:56:50.176Z,1.90
2018-05-06T21:59:17.726Z,1.80
2018-05-06T22:01:45.159Z,1.90
2018-05-06T22:04:13.078Z,2.33
2018-05-06T22:06:40.868Z,1.93
2018-05-06T22:09:08.406Z,1.90
2018-05-06T22:11:35.885Z,2.10
2018-05-06T22:14:03.615Z,1.80
2018-05-06T22:16:31.465Z,2.30
2018-05-06T22:19:01.450Z,2.00
2018-05-06T22:21:29.836Z,1.87
2018-05-06T22:23:58.895Z,2.37
2018-05-06T22:26:27.126Z,1.93
2018-05-06T22:28:54.606Z,2.20
2018-05-06T22:31:22.086Z,2.00
2018-05-06T22:33:49.616Z,2.10
2018-05-06T22:36:18.696Z,1.80
2018-05-06T22:38:46.335Z,1.80
2018-05-06T22:41:14.985Z,2.03
2018-05-06T22:43:42.426Z,2.23
2018-05-06T22:46:10.176Z,1.93
2018-05-06T22:48:37.575Z,1.80
2018-05-06T22:51:05.669Z,1.77
2018-05-06T22:53:33.216Z,2.20
2018-05-06T22:56:00.704Z,1.80
2018-05-06T22:58:28.315Z,2.23
2018-05-06T23:00:57.585Z,2.37
2018-05-06T23:03:25.275Z,1.93
2018-05-06T23:05:53.074Z,2.27
2018-05-06T23:08:20.535Z,2.20
2018-05-06T23:10:48.555Z,1.80
2018-05-06T23:13:17.716Z,2.20
2018-05-06T23:15:48.368Z,2.10
2018-05-06T23:18:18.595Z,2.40
2018-05-06T23:20:48.318Z,1.80
2018-05-06T23:23:21.695Z,2.00
2018-05-06T23:25:51.274Z,2.20
2018-05-06T23:28:19.075Z,1.83
2018-05-06T23:30:46.546Z,2.40
2018-05-06T23:33:14.225Z,2.03
2018-05-06T23:35:41.645Z,1.90
2018-05-06T23:38:09.016Z,1.97
2018-05-06T23:40:36.568Z,2.07
2018-05-06T23:43:06.215Z,2.07
2018-05-06T23:45:36.915Z,2.27
2018-05-06T23:48:06.516Z,2.00
2018-05-06T23:50:35.458Z,2.00
2018-05-06T23:53:03.605Z,1.70
2018-05-06T23:55:37.755Z,1.83
2018-05-06T23:58:05.725Z,1.83
